Svanberga, Sweden

1:11 PM CET on February 10, 2016 (GMT +0100)
Hus | | Change Station
CLOSE
Current Station
Personal Weather Station
Location: Stockholms Län, STOCKHOLMS LäN
Elevation: 62 ft
Nearby Weather Stations

Elev 62 ft 59.85 °N, 18.74 °E | Updated 1 minute ago

Drizzle
Drizzle
38.7 °F
Feels Like 35 °F
N
4.9
Wind Variable Wind from ESE
Gusts 7.0 mph

Today
High -- | Low -- °F
--% Chance of Precip.
Yesterday
High -- | Low -- °F
Precip. -- in
Pressure 28.94 in
Visibility 2.5 miles
Clouds Overcast 200 ft
Windchill 35 °F
Dew Point 37 °F
Humidity 95%
Rainfall 0.14 in
Snow Depth Not available.
7:37 AM 4:22 PM
Waxing Crescent, 5% visible
METAR ESSA 101150Z 09008KT 4000 DZ OVC002 03/03 Q0980 R01L/29//95 R08/29//95 R01R/29//95 TEMPO BKN006
Pressure 28.94 in
Visibility 2.5 miles
Clouds Overcast 200 ft
Windchill 35 °F
Dew Point 37 °F
Humidity 95%
Rainfall 0.14 in
Snow Depth Not available.
7:37 AM 4:22 PM
Waxing Crescent, 5% visible
METAR ESSA 101150Z 09008KT 4000 DZ OVC002 03/03 Q0980 R01L/29//95 R08/29//95 R01R/29//95 TEMPO BKN006

10-Day Weather Forecast

Almanac

Astronomy

Feb. 10, 2016 Rise Set
Actual Time
Civil Twilight
Nautical Twilight
Astronomical Twilight
Moon
Length of Visible Light
Length of Day
Tomorrow will be .
, % of the Moon is Illuminated

Today's Extremes

Country Highs Country Lows

Community

WunderPhotos

Upload Photos

1,891,834 photos uploaded!

WunderBlog® & News

Nearby

Air Quality

  Air Quality AQ Index Pollutant
Not available.

Snow Depth

Station Depth Elevation

Earthquake Activity

City Distance Mag. Time & Date
Minimum magnitude displayed is 2.5.

Coastal Water Temperatures

Place Temperature

Stations

Nearby Weather Stations

Station Location Temp. Windchill Dew Point Humidity Wind Precip. Elev Updated Type